Time;durP1;ratioP1;P1;durP2;ratioP2;P2;SDS_P1;SDS_P2;PMS_P1;PMS_P2;Temp;Humidity;BMP_temperature;BMP_pressure;BME280_temperature;BME280_humidity;BME280_pressure;Samples;Min_cycle;Max_cycle;Signal;HPM_P1;HPM_P2
2023/03/30 00:00:37;;;;;;;2.47;1.50;;;;;;;;;;5056213;28;20076;-85
2023/03/30 00:03:02;;;;;;;1.27;0.82;;;;;;;;;;5054024;28;20031;-83
2023/03/30 00:05:29;;;;;;;4.38;1.40;;;;;;;;;;5054799;28;20020;-82
2023/03/30 00:07:54;;;;;;;0.88;0.75;;;;;;;;;;5055342;28;20039;-84
2023/03/30 00:10:20;;;;;;;0.60;0.60;;;;;;;;;;5037090;28;20449;-85
2023/03/30 00:12:49;;;;;;;0.98;0.63;;;;;;;;;;5053762;28;20049;-82
2023/03/30 00:15:16;;;;;;;4.30;1.50;;;;;;;;;;5054189;28;20028;-82
2023/03/30 00:17:42;;;;;;;1.08;0.80;;;;;;;;;;5036928;28;20495;-83
2023/03/30 00:20:10;;;;;;;2.53;1.05;;;;;;;;;;5037457;28;20024;-83
2023/03/30 00:22:37;;;;;;;2.22;1.40;;;;;;;;;;5037933;28;20029;-82
2023/03/30 00:25:02;;;;;;;1.00;0.85;;;;;;;;;;5035455;28;20060;-85
2023/03/30 00:27:28;;;;;;;2.58;1.55;;;;;;;;;;5054981;28;20029;-83
2023/03/30 00:29:53;;;;;;;2.53;1.58;;;;;;;;;;5055246;28;20396;-84
2023/03/30 00:32:19;;;;;;;0.75;0.70;;;;;;;;;;5054149;28;20048;-83
2023/03/30 00:34:44;;;;;;;2.08;1.25;;;;;;;;;;5035095;28;20115;-83
2023/03/30 00:37:10;;;;;;;2.35;1.30;;;;;;;;;;5045004;28;20079;-83
2023/03/30 00:39:36;;;;;;;2.70;1.27;;;;;;;;;;5035616;28;20043;-82
2023/03/30 00:42:01;;;;;;;2.63;1.30;;;;;;;;;;5053411;28;20808;-82
2023/03/30 00:45:04;;;;;;;1.50;0.85;;;;;;;;;;5051655;28;20110;-84
2023/03/30 00:47:30;;;;;;;1.10;0.65;;;;;;;;;;5049332;28;20108;-82
2023/03/30 00:49:56;;;;;;;0.98;0.73;;;;;;;;;;5035868;28;20100;-82
2023/03/30 00:52:23;;;;;;;2.72;0.90;;;;;;;;;;5054277;28;20029;-83
2023/03/30 00:54:51;;;;;;;0.50;0.50;;;;;;;;;;5035487;28;20081;-82
2023/03/30 00:57:20;;;;;;;0.30;0.30;;;;;;;;;;5051671;28;20033;-86
2023/03/30 00:59:46;;;;;;;2.83;1.10;;;;;;;;;;5051292;28;20032;-86
2023/03/30 01:02:12;;;;;;;0.70;0.70;;;;;;;;;;5036421;28;20040;-84
2023/03/30 01:04:37;;;;;;;6.93;0.93;;;;;;;;;;5036258;28;20465;-83
2023/03/30 01:07:04;;;;;;;1.30;1.20;;;;;;;;;;5036174;28;20440;-85
2023/03/30 01:09:29;;;;;;;0.95;0.70;;;;;;;;;;5055012;28;20084;-84
2023/03/30 01:11:55;;;;;;;1.77;1.02;;;;;;;;;;5053495;28;20069;-83
2023/03/30 01:14:20;;;;;;;1.65;1.15;;;;;;;;;;5053904;28;20036;-86
2023/03/30 01:17:17;;;;;;;1.00;0.70;;;;;;;;;;5036840;28;20037;-84
2023/03/30 01:19:57;;;;;;;0.93;0.80;;;;;;;;;;5035742;28;20027;-84
2023/03/30 01:22:35;;;;;;;2.28;1.30;;;;;;;;;;5053055;28;20036;-82
2023/03/30 01:25:19;;;;;;;2.28;0.93;;;;;;;;;;5035478;28;20036;-84
2023/03/30 01:27:59;;;;;;;0.80;0.80;;;;;;;;;;5053662;28;20126;-83
2023/03/30 01:30:43;;;;;;;1.02;0.93;;;;;;;;;;5036333;28;20389;-84
2023/03/30 01:33:48;;;;;;;0.52;0.52;;;;;;;;;;5051584;28;20056;-85
2023/03/30 01:36:17;;;;;;;2.17;1.17;;;;;;;;;;5052678;28;20071;-86
2023/03/30 01:39:17;;;;;;;0.60;0.60;;;;;;;;;;5051274;28;20520;-84
2023/03/30 01:41:53;;;;;;;2.08;1.45;;;;;;;;;;5054035;28;20108;-86
2023/03/30 01:44:40;;;;;;;3.38;1.13;;;;;;;;;;5053263;28;20025;-84
2023/03/30 01:47:24;;;;;;;3.85;1.02;;;;;;;;;;5035383;28;20563;-84
2023/03/30 01:49:58;;;;;;;1.50;0.85;;;;;;;;;;5037626;28;20037;-86
2023/03/30 01:52:35;;;;;;;1.95;1.23;;;;;;;;;;5052158;28;20079;-83
2023/03/30 01:55:08;;;;;;;1.05;0.65;;;;;;;;;;5036126;28;20035;-86
2023/03/30 01:57:50;;;;;;;0.28;0.28;;;;;;;;;;5035707;28;20037;-84
2023/03/30 02:00:20;;;;;;;1.13;0.60;;;;;;;;;;5034962;28;20082;-84
2023/03/30 02:02:59;;;;;;;1.02;0.95;;;;;;;;;;5035347;28;20063;-85
2023/03/30 02:05:26;;;;;;;2.23;1.20;;;;;;;;;;5033069;28;20071;-85
2023/03/30 02:07:56;;;;;;;1.60;0.75;;;;;;;;;;5050106;28;20029;-83
2023/03/30 02:10:26;;;;;;;0.70;0.68;;;;;;;;;;5050343;28;20029;-83
2023/03/30 02:12:54;;;;;;;2.50;1.02;;;;;;;;;;5052583;28;20070;-85
2023/03/30 02:15:20;;;;;;;1.52;1.00;;;;;;;;;;5035627;28;20060;-84
2023/03/30 02:17:47;;;;;;;2.53;1.20;;;;;;;;;;5034667;28;20029;-85
2023/03/30 02:20:16;;;;;;;2.08;1.00;;;;;;;;;;5053336;28;20025;-84
2023/03/30 02:22:42;;;;;;;0.98;0.80;;;;;;;;;;5026390;28;20038;-84
2023/03/30 02:25:08;;;;;;;2.38;0.73;;;;;;;;;;5045920;28;20040;-83
2023/03/30 02:27:36;;;;;;;1.73;1.20;;;;;;;;;;5032897;28;20028;-83
2023/03/30 02:30:03;;;;;;;0.95;0.50;;;;;;;;;;5035539;28;20040;-85
2023/03/30 02:32:42;;;;;;;1.75;1.25;;;;;;;;;;5053594;28;20082;-86
2023/03/30 02:35:23;;;;;;;0.90;0.68;;;;;;;;;;5051773;28;20025;-86
2023/03/30 02:38:16;;;;;;;2.65;0.95;;;;;;;;;;5050367;28;20028;-83
2023/03/30 02:40:53;;;;;;;0.80;0.80;;;;;;;;;;5052644;28;20476;-86
2023/03/30 02:43:38;;;;;;;1.20;0.70;;;;;;;;;;5041677;28;20473;-85
2023/03/30 02:46:30;;;;;;;0.85;0.80;;;;;;;;;;5052433;28;20031;-88
2023/03/30 02:49:01;;;;;;;1.70;0.90;;;;;;;;;;5035594;28;20086;-85
2023/03/30 02:51:30;;;;;;;1.10;0.75;;;;;;;;;;5036416;28;20017;-86
2023/03/30 02:54:30;;;;;;;1.50;1.00;;;;;;;;;;5035546;28;20021;-84
2023/03/30 02:57:27;;;;;;;3.05;1.10;;;;;;;;;;5052800;28;20695;-82
2023/03/30 03:00:16;;;;;;;0.57;0.50;;;;;;;;;;5028971;28;20048;-83
2023/03/30 03:02:52;;;;;;;1.02;0.93;;;;;;;;;;5052629;28;20033;-86
2023/03/30 03:05:19;;;;;;;0.70;0.70;;;;;;;;;;5054874;28;20048;-85
2023/03/30 03:07:46;;;;;;;1.13;1.02;;;;;;;;;;5039118;28;20420;-85
2023/03/30 03:10:13;;;;;;;0.60;0.60;;;;;;;;;;5038366;28;20060;-85
2023/03/30 03:12:40;;;;;;;0.65;0.65;;;;;;;;;;5048071;28;20104;-84
2023/03/30 03:15:06;;;;;;;1.75;1.52;;;;;;;;;;5056568;28;20037;-84
2023/03/30 03:17:33;;;;;;;0.93;0.90;;;;;;;;;;5038661;28;20032;-83
2023/03/30 03:20:01;;;;;;;1.20;1.10;;;;;;;;;;5035726;28;20032;-85
2023/03/30 03:22:26;;;;;;;2.25;1.20;;;;;;;;;;5055751;28;20024;-86
2023/03/30 03:24:52;;;;;;;1.00;0.75;;;;;;;;;;5056490;28;20369;-84
2023/03/30 03:27:18;;;;;;;1.17;1.00;;;;;;;;;;5056229;28;20489;-84
2023/03/30 03:29:43;;;;;;;2.50;1.23;;;;;;;;;;5039226;28;20029;-85
2023/03/30 03:32:08;;;;;;;2.00;1.17;;;;;;;;;;5056187;28;20111;-84
2023/03/30 03:34:34;;;;;;;0.85;0.85;;;;;;;;;;5044564;28;20501;-85
2023/03/30 03:37:01;;;;;;;3.35;1.30;;;;;;;;;;5030515;28;20713;-84
2023/03/30 03:39:26;;;;;;;2.83;0.80;;;;;;;;;;5045708;28;20076;-84
2023/03/30 03:41:52;;;;;;;1.42;1.33;;;;;;;;;;5046877;28;20050;-82
2023/03/30 03:44:17;;;;;;;0.70;0.70;;;;;;;;;;5044865;28;20021;-83
2023/03/30 03:46:42;;;;;;;0.75;0.60;;;;;;;;;;5047382;28;20032;-86
2023/03/30 03:49:08;;;;;;;2.55;1.17;;;;;;;;;;5023229;28;20032;-83
2023/03/30 03:51:34;;;;;;;2.33;1.00;;;;;;;;;;5045403;28;20025;-84
2023/03/30 03:54:00;;;;;;;3.65;1.13;;;;;;;;;;5027834;28;20029;-84
2023/03/30 03:56:25;;;;;;;1.65;1.17;;;;;;;;;;5047279;28;20029;-86
2023/03/30 03:58:51;;;;;;;0.88;0.75;;;;;;;;;;5040811;28;20118;-84
2023/03/30 04:01:17;;;;;;;0.65;0.63;;;;;;;;;;5044590;28;20102;-84
2023/03/30 04:03:43;;;;;;;1.75;1.20;;;;;;;;;;5047700;28;20021;-86
2023/03/30 04:06:08;;;;;;;2.05;1.35;;;;;;;;;;5046571;28;20037;-85
2023/03/30 04:08:34;;;;;;;0.70;0.50;;;;;;;;;;5045458;28;20033;-85
2023/03/30 04:11:10;;;;;;;2.47;1.23;;;;;;;;;;5045960;28;20037;-84
2023/03/30 04:13:39;;;;;;;0.63;0.55;;;;;;;;;;5045366;28;20547;-86
2023/03/30 04:16:06;;;;;;;0.63;0.63;;;;;;;;;;5043475;28;20028;-86
2023/03/30 04:18:32;;;;;;;1.02;0.52;;;;;;;;;;5029905;28;20029;-87
2023/03/30 04:21:06;;;;;;;1.10;0.60;;;;;;;;;;5029844;28;20354;-84
2023/03/30 04:23:35;;;;;;;1.42;0.93;;;;;;;;;;5044083;28;20374;-83
2023/03/30 04:26:01;;;;;;;0.77;0.60;;;;;;;;;;5023586;28;20160;-83
2023/03/30 04:28:32;;;;;;;1.42;1.20;;;;;;;;;;5042080;28;20061;-87
2023/03/30 04:31:02;;;;;;;0.32;0.32;;;;;;;;;;5043939;28;20025;-83
2023/03/30 04:33:28;;;;;;;2.70;1.75;;;;;;;;;;5025920;28;20497;-86
2023/03/30 04:35:53;;;;;;;2.35;1.45;;;;;;;;;;5048027;28;20040;-82
2023/03/30 04:38:21;;;;;;;1.73;1.60;;;;;;;;;;5039295;28;20040;-83
2023/03/30 04:40:50;;;;;;;1.88;1.48;;;;;;;;;;5042505;28;20025;-80
2023/03/30 04:43:20;;;;;;;4.72;1.77;;;;;;;;;;5040601;28;20794;-86
2023/03/30 04:45:50;;;;;;;6.57;2.22;;;;;;;;;;5039539;28;20039;-83
2023/03/30 04:48:17;;;;;;;1.75;0.77;;;;;;;;;;5040190;28;20122;-84
2023/03/30 04:50:44;;;;;;;2.05;1.27;;;;;;;;;;5025887;28;20036;-85
2023/03/30 04:53:10;;;;;;;3.22;1.67;;;;;;;;;;5038787;28;20033;-83
2023/03/30 04:55:35;;;;;;;3.67;1.80;;;;;;;;;;5047408;28;20124;-78
2023/03/30 04:58:01;;;;;;;1.50;1.27;;;;;;;;;;5038332;28;20411;-81
2023/03/30 05:00:27;;;;;;;1.70;1.27;;;;;;;;;;5039105;28;20033;-79
2023/03/30 05:02:52;;;;;;;2.13;1.30;;;;;;;;;;5026304;28;20033;-79
2023/03/30 05:05:18;;;;;;;0.73;0.73;;;;;;;;;;5036947;28;20048;-79
2023/03/30 05:07:43;;;;;;;2.60;1.52;;;;;;;;;;5037342;28;20025;-81
2023/03/30 05:10:09;;;;;;;2.60;0.93;;;;;;;;;;5028604;28;20087;-79
2023/03/30 05:12:34;;;;;;;0.90;0.90;;;;;;;;;;5039593;28;20827;-80
2023/03/30 05:15:00;;;;;;;4.05;1.13;;;;;;;;;;5034876;28;20029;-80
2023/03/30 05:17:25;;;;;;;1.65;1.00;;;;;;;;;;5032264;28;20037;-81
2023/03/30 05:19:50;;;;;;;4.32;1.50;;;;;;;;;;5020131;28;20363;-79
2023/03/30 05:22:16;;;;;;;1.55;1.25;;;;;;;;;;5033156;28;20021;-79
2023/03/30 05:24:41;;;;;;;6.72;2.10;;;;;;;;;;5045364;28;20013;-81
2023/03/30 05:27:07;;;;;;;1.48;0.80;;;;;;;;;;5034556;28;20029;-80
2023/03/30 05:29:32;;;;;;;1.17;0.93;;;;;;;;;;5038231;28;20052;-79
2023/03/30 05:31:58;;;;;;;3.50;1.33;;;;;;;;;;5032279;28;20428;-80
2023/03/30 05:34:23;;;;;;;1.27;0.98;;;;;;;;;;5038547;28;20042;-82
2023/03/30 05:36:48;;;;;;;1.65;1.00;;;;;;;;;;5046284;28;20029;-81
2023/03/30 05:39:14;;;;;;;3.00;1.30;;;;;;;;;;5032130;28;20028;-81
2023/03/30 05:41:39;;;;;;;0.90;0.82;;;;;;;;;;5037792;28;20112;-80
2023/03/30 05:44:06;;;;;;;1.65;1.25;;;;;;;;;;5048403;28;20028;-80
2023/03/30 05:46:31;;;;;;;2.08;1.65;;;;;;;;;;5023202;28;20033;-80
2023/03/30 05:48:56;;;;;;;3.55;1.75;;;;;;;;;;5049139;28;20397;-83
2023/03/30 05:51:22;;;;;;;2.13;1.25;;;;;;;;;;5050873;28;20028;-81
2023/03/30 05:53:47;;;;;;;6.03;1.80;;;;;;;;;;5041670;28;20041;-80
2023/03/30 05:56:13;;;;;;;1.80;1.48;;;;;;;;;;5049065;28;20110;-81
2023/03/30 05:58:38;;;;;;;3.45;1.77;;;;;;;;;;5028592;28;20029;-82
2023/03/30 06:01:04;;;;;;;1.48;1.02;;;;;;;;;;5047703;28;20029;-80
2023/03/30 06:03:30;;;;;;;2.90;1.70;;;;;;;;;;5045233;28;20565;-80
2023/03/30 06:05:56;;;;;;;2.20;1.67;;;;;;;;;;5045077;28;20083;-79
2023/03/30 06:08:21;;;;;;;3.47;2.08;;;;;;;;;;5043619;28;20493;-79
2023/03/30 06:10:54;;;;;;;2.28;1.40;;;;;;;;;;5050900;28;20078;-80
2023/03/30 06:13:20;;;;;;;4.07;1.65;;;;;;;;;;5048475;28;21203;-79
2023/03/30 06:15:46;;;;;;;3.17;1.08;;;;;;;;;;5046502;28;20032;-79
2023/03/30 06:18:11;;;;;;;1.58;1.33;;;;;;;;;;5034690;28;20036;-80
2023/03/30 06:20:37;;;;;;;5.10;4.35;;;;;;;;;;5032319;28;20036;-81
2023/03/30 06:23:03;;;;;;;6.80;2.35;;;;;;;;;;5034163;28;20028;-81
2023/03/30 06:25:29;;;;;;;3.95;2.40;;;;;;;;;;5035979;28;20021;-80
2023/03/30 06:27:55;;;;;;;4.28;1.95;;;;;;;;;;5029779;28;20029;-81
2023/03/30 06:30:20;;;;;;;6.40;2.20;;;;;;;;;;5050096;28;20029;-81
2023/03/30 06:32:46;;;;;;;2.55;1.85;;;;;;;;;;5050081;28;20827;-82
2023/03/30 06:35:14;;;;;;;5.03;2.50;;;;;;;;;;5049178;28;20060;-81
2023/03/30 06:37:40;;;;;;;2.95;1.70;;;;;;;;;;5048973;28;20025;-79
2023/03/30 06:40:12;;;;;;;2.33;1.77;;;;;;;;;;5052337;28;20043;-79
2023/03/30 06:42:42;;;;;;;3.80;1.42;;;;;;;;;;5034475;28;20035;-80
